Time;durP1;ratioP1;P1;durP2;ratioP2;P2;SDS_P1;SDS_P2;PMS_P1;PMS_P2;Temp;Humidity;BMP_temperature;BMP_pressure;BME280_temperature;BME280_humidity;BME280_pressure;Samples;Min_cycle;Max_cycle;Signal;HPM_P1;HPM_P2
2022/09/29 00:00:10;;;;;;;;;;;;;;;;;;4785104;29;19988;-84
2022/09/29 00:02:36;;;;;;;;;;;;;;;;;;4801560;29;19936;-84
2022/09/29 00:05:02;;;;;;;;;;;;;;;;;;4786575;29;19968;-84
2022/09/29 00:07:28;;;;;;;;;;;;;;;;;;4806932;29;20013;-84
2022/09/29 00:09:54;;;;;;;;;;;;;;;;;;4770347;29;19988;-84
2022/09/29 00:12:20;;;;;;;;;;;;;;;;;;4796366;29;19929;-84
2022/09/29 00:14:46;;;;;;;;;;;;;;;;;;4769808;29;19929;-84
2022/09/29 00:17:13;;;;;;;;;;;;;;;;;;4782335;29;19965;-84
2022/09/29 00:19:38;;;;;;;;;;;;;;;;;;4794986;29;20465;-84
2022/09/29 00:22:04;;;;;;;;;;;;;;;;;;4787859;29;19957;-84
2022/09/29 00:24:30;;;;;;;;;;;;;;;;;;4791255;29;19933;-84
2022/09/29 00:26:56;;;;;;;;;;;;;;;;;;4774331;29;19929;-84
2022/09/29 00:29:22;;;;;;;;;;;;;;;;;;4799909;29;19928;-84
2022/09/29 00:31:48;;;;;;;;;;;;;;;;;;4771834;29;19932;-84
2022/09/29 00:34:14;;;;;;;;;;;;;;;;;;4781399;29;20061;-84
2022/09/29 00:36:43;;;;;;;;;;;;;;;;;;4783942;29;19928;-84
2022/09/29 00:39:09;;;;;;;;;;;;;;;;;;4794484;29;19981;-84
2022/09/29 00:41:35;;;;;;;;;;;;;;;;;;4781957;29;19995;-84
2022/09/29 00:44:01;;;;;;;;;;;;;;;;;;4791457;29;21970;-84
2022/09/29 00:46:27;;;;;;;;;;;;;;;;;;4778562;29;19968;-84
2022/09/29 00:48:53;;;;;;;;;;;;;;;;;;4802617;29;19928;-84
2022/09/29 00:51:19;;;;;;;;;;;;;;;;;;4794210;29;19981;-84
2022/09/29 00:53:45;;;;;;;;;;;;;;;;;;4774707;29;20444;-84
2022/09/29 00:56:11;;;;;;;;;;;;;;;;;;4800087;29;19928;-84
2022/09/29 00:58:38;;;;;;;;;;;;;;;;;;4794172;29;19987;-84
2022/09/29 01:01:04;;;;;;;;;;;;;;;;;;4769463;29;19932;-84
2022/09/29 01:03:30;;;;;;;;;;;;;;;;;;4791870;29;19959;-84
2022/09/29 01:05:56;;;;;;;;;;;;;;;;;;4776775;29;19933;-84
2022/09/29 01:08:22;;;;;;;;;;;;;;;;;;4793349;29;20285;-84
2022/09/29 01:10:48;;;;;;;;;;;;;;;;;;4791031;29;19936;-84
2022/09/29 01:13:14;;;;;;;;;;;;;;;;;;4791772;29;19928;-84
2022/09/29 01:15:43;;;;;;;;;;;;;;;;;;4789695;29;20795;-84
2022/09/29 01:18:12;;;;;;;;;;;;;;;;;;4779600;29;20023;-84
2022/09/29 01:20:38;;;;;;;;;;;;;;;;;;4790375;29;19928;-84
2022/09/29 01:23:04;;;;;;;;;;;;;;;;;;4789229;29;19929;-84
2022/09/29 01:25:30;;;;;;;;;;;;;;;;;;4789202;29;20368;-84
2022/09/29 01:27:56;;;;;;;;;;;;;;;;;;4787196;29;19928;-84
2022/09/29 01:30:22;;;;;;;;;;;;;;;;;;4781153;29;19995;-84
2022/09/29 01:32:48;;;;;;;;;;;;;;;;;;4789182;29;19925;-85
2022/09/29 01:35:14;;;;;;;;;;;;;;;;;;4792389;29;19985;-84
2022/09/29 01:37:43;;;;;;;;;;;;;;;;;;4776049;29;19935;-83
2022/09/29 01:40:09;;;;;;;;;;;;;;;;;;4791586;29;19928;-84
2022/09/29 01:42:35;;;;;;;;;;;;;;;;;;4778620;29;19939;-83
2022/09/29 01:45:01;;;;;;;;;;;;;;;;;;4803222;29;21793;-84
2022/09/29 01:47:27;;;;;;;;;;;;;;;;;;4788566;29;19933;-84
2022/09/29 01:49:52;;;;;;;;;;;;;;;;;;4773281;29;20318;-83
2022/09/29 01:52:19;;;;;;;;;;;;;;;;;;4796693;29;19924;-84
2022/09/29 01:54:44;;;;;;;;;;;;;;;;;;4791120;29;20031;-84
2022/09/29 01:57:10;;;;;;;;;;;;;;;;;;4777570;29;20280;-84
2022/09/29 01:59:36;;;;;;;;;;;;;;;;;;4792100;29;19939;-84
2022/09/29 02:02:02;;;;;;;;;;;;;;;;;;4783230;29;19937;-84
2022/09/29 02:04:28;;;;;;;;;;;;;;;;;;4788255;29;19932;-84
2022/09/29 02:06:54;;;;;;;;;;;;;;;;;;4773970;29;20001;-84
2022/09/29 02:09:20;;;;;;;;;;;;;;;;;;4792301;29;19984;-84
2022/09/29 02:11:47;;;;;;;;;;;;;;;;;;4781870;29;19933;-84
2022/09/29 02:14:13;;;;;;;;;;;;;;;;;;4769632;29;19933;-84
2022/09/29 02:16:39;;;;;;;;;;;;;;;;;;4774682;29;20004;-84
2022/09/29 02:19:07;;;;;;;;;;;;;;;;;;4786443;29;20377;-84
2022/09/29 02:21:33;;;;;;;;;;;;;;;;;;4774723;29;19932;-84
2022/09/29 02:23:59;;;;;;;;;;;;;;;;;;4769010;29;20371;-84
2022/09/29 02:26:25;;;;;;;;;;;;;;;;;;4782812;29;20021;-84
2022/09/29 02:28:51;;;;;;;;;;;;;;;;;;4795532;29;20296;-84
2022/09/29 02:31:17;;;;;;;;;;;;;;;;;;4782309;29;19939;-83
2022/09/29 02:33:46;;;;;;;;;;;;;;;;;;4782389;29;19990;-85
2022/09/29 02:36:12;;;;;;;;;;;;;;;;;;4785117;29;20323;-84
2022/09/29 02:38:38;;;;;;;;;;;;;;;;;;4793502;29;19960;-83
2022/09/29 02:41:06;;;;;;;;;;;;;;;;;;4782986;29;20528;-84
2022/09/29 02:43:32;;;;;;;;;;;;;;;;;;4782461;29;19929;-83
2022/09/29 02:45:58;;;;;;;;;;;;;;;;;;4768486;29;20102;-83
2022/09/29 02:48:24;;;;;;;;;;;;;;;;;;4789640;29;19936;-84
2022/09/29 02:50:50;;;;;;;;;;;;;;;;;;4788742;29;19973;-83
2022/09/29 02:53:16;;;;;;;;;;;;;;;;;;4791309;29;19958;-84
2022/09/29 02:55:45;;;;;;;;;;;;;;;;;;4785596;29;19933;-84
2022/09/29 02:58:11;;;;;;;;;;;;;;;;;;4778538;29;19928;-83
2022/09/29 03:00:37;;;;;;;;;;;;;;;;;;4796516;29;19989;-84
2022/09/29 03:03:03;;;;;;;;;;;;;;;;;;4783955;29;19936;-84
2022/09/29 03:05:29;;;;;;;;;;;;;;;;;;4776475;29;20338;-84
2022/09/29 03:07:55;;;;;;;;;;;;;;;;;;4785522;29;19968;-84
2022/09/29 03:10:21;;;;;;;;;;;;;;;;;;4772972;29;20024;-84
2022/09/29 03:12:50;;;;;;;;;;;;;;;;;;4785659;29;20491;-84
2022/09/29 03:15:16;;;;;;;;;;;;;;;;;;4790795;29;19933;-83
2022/09/29 03:17:42;;;;;;;;;;;;;;;;;;4788820;29;20028;-84
2022/09/29 03:20:08;;;;;;;;;;;;;;;;;;4791418;29;20801;-84
2022/09/29 03:22:34;;;;;;;;;;;;;;;;;;4794821;29;19940;-84
2022/09/29 03:25:00;;;;;;;;;;;;;;;;;;4769712;29;19936;-84
2022/09/29 03:27:26;;;;;;;;;;;;;;;;;;4793169;29;19937;-84
2022/09/29 03:29:52;;;;;;;;;;;;;;;;;;4788861;29;19936;-84
2022/09/29 03:32:26;;;;;;;;;;;;;;;;;;4775069;29;20828;-84
2022/09/29 03:34:52;;;;;;;;;;;;;;;;;;4781615;29;19940;-84
2022/09/29 03:37:18;;;;;;;;;;;;;;;;;;4775114;29;20049;-84
2022/09/29 03:39:44;;;;;;;;;;;;;;;;;;4770381;29;19937;-84
2022/09/29 03:42:10;;;;;;;;;;;;;;;;;;4789138;29;19940;-84
2022/09/29 03:44:36;;;;;;;;;;;;;;;;;;4778929;29;19933;-84
2022/09/29 03:47:02;;;;;;;;;;;;;;;;;;4770371;29;19937;-84
2022/09/29 03:49:28;;;;;;;;;;;;;;;;;;4791097;29;20431;-83
2022/09/29 03:51:54;;;;;;;;;;;;;;;;;;4771378;29;19971;-84
2022/09/29 03:54:23;;;;;;;;;;;;;;;;;;4781966;29;19975;-84
2022/09/29 03:56:49;;;;;;;;;;;;;;;;;;4769659;29;20020;-84
2022/09/29 03:59:15;;;;;;;;;;;;;;;;;;4793667;29;19932;-84
2022/09/29 04:01:41;;;;;;;;;;;;;;;;;;4794168;29;19939;-84
2022/09/29 04:04:11;;;;;;;;;;;;;;;;;;4804541;29;19936;-84
2022/09/29 04:06:37;;;;;;;;;;;;;;;;;;4787199;29;20404;-84
2022/09/29 04:09:03;;;;;;;;;;;;;;;;;;4777768;29;19932;-84
2022/09/29 04:11:29;;;;;;;;;;;;;;;;;;4789417;29;19933;-84
2022/09/29 04:13:55;;;;;;;;;;;;;;;;;;4782937;29;19928;-84
2022/09/29 04:16:21;;;;;;;;;;;;;;;;;;4786612;29;21995;-84
2022/09/29 04:18:47;;;;;;;;;;;;;;;;;;4765507;29;19933;-84
2022/09/29 04:21:15;;;;;;;;;;;;;;;;;;4806508;29;20012;-84
2022/09/29 04:23:41;;;;;;;;;;;;;;;;;;4790372;29;19936;-84
2022/09/29 04:26:07;;;;;;;;;;;;;;;;;;4768150;29;19933;-84
2022/09/29 04:28:33;;;;;;;;;;;;;;;;;;4781262;29;19936;-84
2022/09/29 04:30:59;;;;;;;;;;;;;;;;;;4786908;29;20408;-84
2022/09/29 04:33:25;;;;;;;;;;;;;;;;;;4788288;29;19932;-84
2022/09/29 04:35:51;;;;;;;;;;;;;;;;;;4783022;29;19941;-84
2022/09/29 04:38:17;;;;;;;;;;;;;;;;;;4786273;29;19932;-83
2022/09/29 04:40:43;;;;;;;;;;;;;;;;;;4785506;29;19936;-84
2022/09/29 04:43:09;;;;;;;;;;;;;;;;;;4771908;29;19928;-84
2022/09/29 04:45:35;;;;;;;;;;;;;;;;;;4767916;29;20085;-84
2022/09/29 04:48:01;;;;;;;;;;;;;;;;;;4787662;29;20758;-84
2022/09/29 04:50:28;;;;;;;;;;;;;;;;;;4783546;29;20670;-84
2022/09/29 04:52:53;;;;;;;;;;;;;;;;;;4781162;29;20001;-84
2022/09/29 04:55:19;;;;;;;;;;;;;;;;;;4777102;29;19929;-83
2022/09/29 04:57:47;;;;;;;;;;;;;;;;;;4784274;29;20019;-84
2022/09/29 05:00:13;;;;;;;;;;;;;;;;;;4783108;29;19929;-83
2022/09/29 05:02:39;;;;;;;;;;;;;;;;;;4773325;29;20412;-84
2022/09/29 05:05:09;;;;;;;;;;;;;;;;;;4761573;29;20319;-83
2022/09/29 05:07:35;;;;;;;;;;;;;;;;;;4779585;29;20163;-83
2022/09/29 05:10:01;;;;;;;;;;;;;;;;;;4788510;29;20260;-84
2022/09/29 05:12:27;;;;;;;;;;;;;;;;;;4769491;29;19983;-84
2022/09/29 05:14:53;;;;;;;;;;;;;;;;;;4777399;29;19933;-84
2022/09/29 05:17:19;;;;;;;;;;;;;;;;;;4771965;29;19925;-84
2022/09/29 05:19:45;;;;;;;;;;;;;;;;;;4775081;29;20199;-84
2022/09/29 05:22:10;;;;;;;;;;;;;;;;;;4772071;29;19932;-84
2022/09/29 05:24:36;;;;;;;;;;;;;;;;;;4785026;29;20056;-84
2022/09/29 05:27:02;;;;;;;;;;;;;;;;;;4794920;29;19932;-84
2022/09/29 05:29:28;;;;;;;;;;;;;;;;;;4771213;29;19980;-84
2022/09/29 05:31:54;;;;;;;;;;;;;;;;;;4776349;29;20023;-84
2022/09/29 05:34:20;;;;;;;;;;;;;;;;;;4775253;29;19929;-84
2022/09/29 05:36:46;;;;;;;;;;;;;;;;;;4765650;29;19935;-84
2022/09/29 05:39:12;;;;;;;;;;;;;;;;;;4783667;29;19959;-84
2022/09/29 05:41:38;;;;;;;;;;;;;;;;;;4783987;29;19932;-84
2022/09/29 05:44:04;;;;;;;;;;;;;;;;;;4798028;29;19936;-84
2022/09/29 05:46:30;;;;;;;;;;;;;;;;;;4794757;29;20101;-83
2022/09/29 05:48:59;;;;;;;;;;;;;;;;;;4757604;29;19933;-84
2022/09/29 05:51:25;;;;;;;;;;;;;;;;;;4794858;29;19985;-84
2022/09/29 05:53:51;;;;;;;;;;;;;;;;;;4782791;29;19933;-84
2022/09/29 05:56:21;;;;;;;;;;;;;;;;;;4792192;29;19940;-84
2022/09/29 05:58:47;;;;;;;;;;;;;;;;;;4780019;29;19937;-84
2022/09/29 06:01:13;;;;;;;;;;;;;;;;;;4774460;29;19933;-84
2022/09/29 06:03:39;;;;;;;;;;;;;;;;;;4768632;29;19932;-84
2022/09/29 06:06:05;;;;;;;;;;;;;;;;;;4799778;29;19933;-84
2022/09/29 06:08:31;;;;;;;;;;;;;;;;;;4790475;29;22237;-83
2022/09/29 06:10:57;;;;;;;;;;;;;;;;;;4777849;29;20389;-84
2022/09/29 06:13:23;;;;;;;;;;;;;;;;;;4784963;29;20443;-84
2022/09/29 06:15:49;;;;;;;;;;;;;;;;;;4779369;29;19925;-84
2022/09/29 06:18:15;;;;;;;;;;;;;;;;;;4795363;29;19925;-84
2022/09/29 06:20:41;;;;;;;;;;;;;;;;;;4810274;29;19929;-84
2022/09/29 06:23:07;;;;;;;;;;;;;;;;;;4792951;29;19941;-84
2022/09/29 06:25:32;;;;;;;;;;;;;;;;;;4798821;29;19935;-83
2022/09/29 06:27:58;;;;;;;;;;;;;;;;;;4797279;29;19933;-84
2022/09/29 06:30:24;;;;;;;;;;;;;;;;;;4797290;29;21774;-84
2022/09/29 06:32:50;;;;;;;;;;;;;;;;;;4786996;29;19925;-83
2022/09/29 06:38:01;;;;;;;;;;;;;;;;;;4811949;29;22343;-84
2022/09/29 06:45:51;;;;;;;;;;;;;;;;;;5071236;23;19936;-85
2022/09/29 06:48:19;;;;;;;;;;;;;;;;;;4814770;29;20023;-85
2022/09/29 06:50:47;;;;;;;;;;;;;;;;;;4807849;29;19928;-87
2022/09/29 06:53:13;;;;;;;;;;;;;;;;;;4797973;29;19933;-86
2022/09/29 06:55:39;;;;;;;;;;;;;;;;;;4810444;29;19929;-86
2022/09/29 06:58:05;;;;;;;;;;;;;;;;;;4786735;29;19932;-86
2022/09/29 07:00:32;;;;;;;;;;;;;;;;;;4811100;29;19933;-86
2022/09/29 07:02:58;;;;;;;;;;;;;;;;;;4792964;29;19931;-86
2022/09/29 07:05:24;;;;;;;;;;;;;;;;;;4817159;29;19932;-86
2022/09/29 07:07:50;;;;;;;;;;;;;;;;;;4795684;29;20292;-86
2022/09/29 07:10:16;;;;;;;;;;;;;;;;;;4809833;29;19925;-86
2022/09/29 07:12:45;;;;;;;;;;;;;;;;;;4807633;29;20526;-86
2022/09/29 07:15:11;;;;;;;;;;;;;;;;;;4820662;29;19932;-86
2022/09/29 07:17:37;;;;;;;;;;;;;;;;;;4800418;29;19925;-86
2022/09/29 07:20:04;;;;;;;;;;;;;;;;;;4809016;29;20506;-86
2022/09/29 07:22:30;;;;;;;;;;;;;;;;;;4813067;29;19936;-86
2022/09/29 07:24:56;;;;;;;;;;;;;;;;;;4791858;29;19935;-86
2022/09/29 07:27:23;;;;;;;;;;;;;;;;;;4797546;29;19929;-86
2022/09/29 07:29:49;;;;;;;;;;;;;;;;;;4794642;29;19929;-86
2022/09/29 07:32:15;;;;;;;;;;;;;;;;;;4824442;29;19936;-86
2022/09/29 07:34:40;;;;;;;;;;;;;;;;;;4809521;29;19997;-86
2022/09/29 07:37:07;;;;;;;;;;;;;;;;;;4805578;29;19924;-86
2022/09/29 07:39:33;;;;;;;;;;;;;;;;;;4810674;29;19933;-86
2022/09/29 07:41:59;;;;;;;;;;;;;;;;;;4805034;29;19933;-86
2022/09/29 07:44:25;;;;;;;;;;;;;;;;;;4820450;29;20360;-86
2022/09/29 07:46:54;;;;;;;;;;;;;;;;;;4781204;29;19925;-86
2022/09/29 07:49:20;;;;;;;;;;;;;;;;;;4812602;29;20065;-86
2022/09/29 07:51:47;;;;;;;;;;;;;;;;;;4793984;29;20015;-86
2022/09/29 07:54:13;;;;;;;;;;;;;;;;;;4791707;29;19933;-86
2022/09/29 07:56:39;;;;;;;;;;;;;;;;;;4821093;29;19925;-86
2022/09/29 07:59:05;;;;;;;;;;;;;;;;;;4804257;29;19940;-87
2022/09/29 08:01:31;;;;;;;;;;;;;;;;;;4810476;29;19921;-86
2022/09/29 08:03:57;;;;;;;;;;;;;;;;;;4804860;29;19939;-87
2022/09/29 08:06:23;;;;;;;;;;;;;;;;;;4809270;29;19933;-86
2022/09/29 08:08:49;;;;;;;;;;;;;;;;;;4822688;29;19976;-87
2022/09/29 08:11:15;;;;;;;;;;;;;;;;;;4821085;29;20376;-86
2022/09/29 08:13:41;;;;;;;;;;;;;;;;;;4806248;29;19980;-86
2022/09/29 08:16:10;;;;;;;;;;;;;;;;;;4796871;29;19948;-87
2022/09/29 08:18:36;;;;;;;;;;;;;;;;;;4809421;29;19972;-87
2022/09/29 08:21:13;;;;;;;;;;;;;;;;;;4799076;29;20339;-86
2022/09/29 08:23:39;;;;;;;;;;;;;;;;;;4810841;29;19941;-87
2022/09/29 08:26:05;;;;;;;;;;;;;;;;;;4805978;29;20020;-86
2022/09/29 08:28:31;;;;;;;;;;;;;;;;;;4796322;29;19925;-87
2022/09/29 08:30:59;;;;;;;;;;;;;;;;;;4792980;29;19936;-87
2022/09/29 08:33:26;;;;;;;;;;;;;;;;;;4807157;29;19928;-87
2022/09/29 08:35:52;;;;;;;;;;;;;;;;;;4797098;29;19929;-87
2022/09/29 08:38:18;;;;;;;;;;;;;;;;;;4794755;29;20380;-87
2022/09/29 08:40:44;;;;;;;;;;;;;;;;;;4809374;29;19929;-86
2022/09/29 08:43:12;;;;;;;;;;;;;;;;;;4786836;29;20376;-87
2022/09/29 08:45:38;;;;;;;;;;;;;;;;;;4812238;29;19933;-87
2022/09/29 08:48:05;;;;;;;;;;;;;;;;;;4798696;29;19932;-87
2022/09/29 08:50:30;;;;;;;;;;;;;;;;;;4794551;29;19925;-87
2022/09/29 08:52:57;;;;;;;;;;;;;;;;;;4804229;29;19929;-87
2022/09/29 08:55:25;;;;;;;;;;;;;;;;;;4781224;29;20407;-87
2022/09/29 08:57:51;;;;;;;;;;;;;;;;;;4768596;29;20369;-87
2022/09/29 09:00:20;;;;;;;;;;;;;;;;;;4804859;29;19960;-87
2022/09/29 09:02:49;;;;;;;;;;;;;;;;;;4818608;29;19933;-87
2022/09/29 09:05:16;;;;;;;;;;;;;;;;;;4810686;29;20445;-87
2022/09/29 09:07:42;;;;;;;;;;;;;;;;;;4789521;29;19929;-87
2022/09/29 09:10:08;;;;;;;;;;;;;;;;;;4812295;29;19935;-87
2022/09/29 09:12:34;;;;;;;;;;;;;;;;;;4805112;29;20011;-87
2022/09/29 09:15:00;;;;;;;;;;;;;;;;;;4798793;29;19929;-87
2022/09/29 09:17:26;;;;;;;;;;;;;;;;;;4807947;29;19932;-87
2022/09/29 09:19:54;;;;;;;;;;;;;;;;;;4799120;29;20315;-87
2022/09/29 09:22:29;;;;;;;;;;;;;;;;;;4804773;29;19976;-87
2022/09/29 09:24:55;;;;;;;;;;;;;;;;;;4783801;29;19933;-87
2022/09/29 09:27:21;;;;;;;;;;;;;;;;;;4806966;29;19925;-86
2022/09/29 09:29:47;;;;;;;;;;;;;;;;;;4799357;29;19931;-87
2022/09/29 09:32:13;;;;;;;;;;;;;;;;;;4812028;29;19933;-87
2022/09/29 09:34:42;;;;;;;;;;;;;;;;;;4806477;29;19929;-87
2022/09/29 09:37:08;;;;;;;;;;;;;;;;;;4795699;29;19934;-86
2022/09/29 09:39:34;;;;;;;;;;;;;;;;;;4824565;29;19924;-86
2022/09/29 09:42:03;;;;;;;;;;;;;;;;;;4801449;29;22273;-87
2022/09/29 09:44:29;;;;;;;;;;;;;;;;;;4802918;29;19966;-87
2022/09/29 09:46:55;;;;;;;;;;;;;;;;;;4801081;29;21359;-86
2022/09/29 09:49:25;;;;;;;;;;;;;;;;;;4803499;29;20769;-86
2022/09/29 09:51:51;;;;;;;;;;;;;;;;;;4805034;29;20810;-87
2022/09/29 09:54:17;;;;;;;;;;;;;;;;;;4809784;29;19925;-87
2022/09/29 09:56:43;;;;;;;;;;;;;;;;;;4802192;29;19935;-87
2022/09/29 09:59:09;;;;;;;;;;;;;;;;;;4794167;29;19925;-87
2022/09/29 10:01:38;;;;;;;;;;;;;;;;;;4802519;29;20338;-87
2022/09/29 10:04:06;;;;;;;;;;;;;;;;;;4797574;29;19990;-86
2022/09/29 10:06:32;;;;;;;;;;;;;;;;;;4808219;29;20066;-86
2022/09/29 10:08:58;;;;;;;;;;;;;;;;;;4806246;29;19939;-86
2022/09/29 10:11:27;;;;;;;;;;;;;;;;;;4809251;29;20392;-86
2022/09/29 10:13:53;;;;;;;;;;;;;;;;;;4809189;29;20027;-86
2022/09/29 10:16:19;;;;;;;;;;;;;;;;;;4796995;29;19936;-86
2022/09/29 10:18:45;;;;;;;;;;;;;;;;;;4801062;29;19936;-86
2022/09/29 10:21:11;;;;;;;;;;;;;;;;;;4810991;29;19928;-86
2022/09/29 10:23:37;;;;;;;;;;;;;;;;;;4808896;29;20428;-86
2022/09/29 10:26:03;;;;;;;;;;;;;;;;;;4801100;29;19929;-86
2022/09/29 10:28:30;;;;;;;;;;;;;;;;;;4806391;29;19932;-86
2022/09/29 10:30:56;;;;;;;;;;;;;;;;;;4792439;29;20405;-86
2022/09/29 10:33:22;;;;;;;;;;;;;;;;;;4805195;29;19964;-86
2022/09/29 10:35:48;;;;;;;;;;;;;;;;;;4789918;29;19924;-86
2022/09/29 10:38:14;;;;;;;;;;;;;;;;;;4806933;29;20161;-86
2022/09/29 10:40:43;;;;;;;;;;;;;;;;;;4823567;29;20129;-87
2022/09/29 10:43:12;;;;;;;;;;;;;;;;;;4802305;29;19925;-86
2022/09/29 10:45:37;;;;;;;;;;;;;;;;;;4808992;29;19933;-86
2022/09/29 10:48:04;;;;;;;;;;;;;;;;;;4789139;29;19935;-86
2022/09/29 10:50:30;;;;;;;;;;;;;;;;;;4811475;29;19985;-86
2022/09/29 10:52:56;;;;;;;;;;;;;;;;;;4794298;29;19929;-86
2022/09/29 10:55:22;;;;;;;;;;;;;;;;;;4804380;29;19928;-86
2022/09/29 10:57:48;;;;;;;;;;;;;;;;;;4807344;29;19925;-86
2022/09/29 11:00:14;;;;;;;;;;;;;;;;;;4814546;29;19936;-86
2022/09/29 11:02:43;;;;;;;;;;;;;;;;;;4799477;29;19980;-86
2022/09/29 11:05:09;;;;;;;;;;;;;;;;;;4805226;29;20094;-86
2022/09/29 11:07:35;;;;;;;;;;;;;;;;;;4818366;29;19933;-86
2022/09/29 11:10:04;;;;;;;;;;;;;;;;;;4796063;29;19999;-86
2022/09/29 11:12:30;;;;;;;;;;;;;;;;;;4823467;29;20031;-86
2022/09/29 11:14:56;;;;;;;;;;;;;;;;;;4808062;29;20640;-86
2022/09/29 11:17:26;;;;;;;;;;;;;;;;;;4808499;29;19925;-86
2022/09/29 11:19:52;;;;;;;;;;;;;;;;;;4822047;29;19940;-86
2022/09/29 11:22:18;;;;;;;;;;;;;;;;;;4794363;29;19932;-86
2022/09/29 11:24:44;;;;;;;;;;;;;;;;;;4801527;29;19968;-87
2022/09/29 11:27:10;;;;;;;;;;;;;;;;;;4807370;29;19980;-86
2022/09/29 11:29:36;;;;;;;;;;;;;;;;;;4811089;29;20154;-86
2022/09/29 11:32:02;;;;;;;;;;;;;;;;;;4784115;29;19933;-87
2022/09/29 11:34:28;;;;;;;;;;;;;;;;;;4806511;29;20085;-87
2022/09/29 11:36:54;;;;;;;;;;;;;;;;;;4817503;29;19933;-86
2022/09/29 11:39:20;;;;;;;;;;;;;;;;;;4821320;29;19929;-86
2022/09/29 11:41:46;;;;;;;;;;;;;;;;;;4776957;29;19928;-86
2022/09/29 11:44:12;;;;;;;;;;;;;;;;;;4801864;29;19959;-86
2022/09/29 11:46:38;;;;;;;;;;;;;;;;;;4797300;29;20443;-86
2022/09/29 11:49:04;;;;;;;;;;;;;;;;;;4804265;29;19984;-86
2022/09/29 11:51:30;;;;;;;;;;;;;;;;;;4788834;29;20349;-86
2022/09/29 11:53:56;;;;;;;;;;;;;;;;;;4784562;29;20072;-86
2022/09/29 11:56:22;;;;;;;;;;;;;;;;;;4792753;29;19989;-86
2022/09/29 11:58:50;;;;;;;;;;;;;;;;;;4786751;29;20033;-86
2022/09/29 12:01:16;;;;;;;;;;;;;;;;;;4806212;29;20407;-86
2022/09/29 12:03:43;;;;;;;;;;;;;;;;;;4784679;29;19929;-86
2022/09/29 12:06:14;;;;;;;;;;;;;;;;;;4788199;29;19933;-86
2022/09/29 12:08:43;;;;;;;;;;;;;;;;;;4804506;29;19933;-86
2022/09/29 12:11:09;;;;;;;;;;;;;;;;;;4821447;29;19929;-86
2022/09/29 12:13:35;;;;;;;;;;;;;;;;;;4805111;29;19999;-86
2022/09/29 12:16:02;;;;;;;;;;;;;;;;;;4805643;29;20560;-86
2022/09/29 12:18:30;;;;;;;;;;;;;;;;;;4791564;29;19933;-86
2022/09/29 12:20:56;;;;;;;;;;;;;;;;;;4813897;29;19933;-88
2022/09/29 12:23:22;;;;;;;;;;;;;;;;;;4804797;29;19968;-88
2022/09/29 12:25:48;;;;;;;;;;;;;;;;;;4802470;29;19935;-87
2022/09/29 12:28:15;;;;;;;;;;;;;;;;;;4804147;29;19925;-87
2022/09/29 12:30:41;;;;;;;;;;;;;;;;;;4819925;29;19933;-87
2022/09/29 12:33:07;;;;;;;;;;;;;;;;;;4792327;29;19932;-87
2022/09/29 12:35:33;;;;;;;;;;;;;;;;;;4803169;29;19925;-87
2022/09/29 12:37:59;;;;;;;;;;;;;;;;;;4816127;29;19929;-87
2022/09/29 12:40:32;;;;;;;;;;;;;;;;;;4788668;29;19933;-88
2022/09/29 12:42:58;;;;;;;;;;;;;;;;;;4777848;29;19936;-87
2022/09/29 12:45:24;;;;;;;;;;;;;;;;;;4821369;29;19932;-87
2022/09/29 12:47:50;;;;;;;;;;;;;;;;;;4801423;29;20491;-87
2022/09/29 12:50:16;;;;;;;;;;;;;;;;;;4808380;29;20297;-87
2022/09/29 12:52:44;;;;;;;;;;;;;;;;;;4783655;29;19925;-87
2022/09/29 12:55:14;;;;;;;;;;;;;;;;;;4793340;29;20389;-88
2022/09/29 12:57:43;;;;;;;;;;;;;;;;;;4804478;29;21012;-87
2022/09/29 13:00:09;;;;;;;;;;;;;;;;;;4794738;29;19929;-87
2022/09/29 13:02:35;;;;;;;;;;;;;;;;;;4789516;29;19958;-87
2022/09/29 13:05:01;;;;;;;;;;;;;;;;;;4784694;29;19944;-87
2022/09/29 13:07:27;;;;;;;;;;;;;;;;;;4790230;29;19932;-87
2022/09/29 13:09:53;;;;;;;;;;;;;;;;;;4793186;29;20181;-87
2022/09/29 13:12:19;;;;;;;;;;;;;;;;;;4796882;29;19929;-87
2022/09/29 13:14:45;;;;;;;;;;;;;;;;;;4779272;29;19968;-87
2022/09/29 13:17:11;;;;;;;;;;;;;;;;;;4778536;29;19933;-87
2022/09/29 13:19:40;;;;;;;;;;;;;;;;;;4784716;29;19933;-87
2022/09/29 13:22:12;;;;;;;;;;;;;;;;;;4785576;29;19929;-87
2022/09/29 13:24:38;;;;;;;;;;;;;;;;;;4822177;29;19933;-87
2022/09/29 13:27:04;;;;;;;;;;;;;;;;;;4814820;29;19932;-87
2022/09/29 13:29:32;;;;;;;;;;;;;;;;;;4811781;29;19932;-87
2022/09/29 13:31:58;;;;;;;;;;;;;;;;;;4790699;29;20020;-87
2022/09/29 13:34:25;;;;;;;;;;;;;;;;;;4820947;29;20053;-87
2022/09/29 13:36:52;;;;;;;;;;;;;;;;;;4805312;29;20113;-87
2022/09/29 13:39:18;;;;;;;;;;;;;;;;;;4808641;29;20084;-87
2022/09/29 13:41:44;;;;;;;;;;;;;;;;;;4791754;29;20023;-86
2022/09/29 13:44:12;;;;;;;;;;;;;;;;;;4809623;29;19933;-87
2022/09/29 13:46:39;;;;;;;;;;;;;;;;;;4805077;29;19937;-87
2022/09/29 13:49:11;;;;;;;;;;;;;;;;;;4800744;29;20292;-90
2022/09/29 13:51:49;;;;;;;;;;;;;;;;;;4795966;29;19939;-89
2022/09/29 13:54:21;;;;;;;;;;;;;;;;;;4826203;29;19987;-89
2022/09/29 13:57:04;;;;;;;;;;;;;;;;;;4799518;29;19958;-89
2022/09/29 13:59:38;;;;;;;;;;;;;;;;;;4824834;29;19925;-90
2022/09/29 14:02:06;;;;;;;;;;;;;;;;;;4804143;29;20358;-89
2022/09/29 14:04:50;;;;;;;;;;;;;;;;;;4809459;29;19929;-89
2022/09/29 14:07:19;;;;;;;;;;;;;;;;;;4797889;29;20376;-89
2022/09/29 14:09:46;;;;;;;;;;;;;;;;;;4804718;29;20289;-89
2022/09/29 14:12:12;;;;;;;;;;;;;;;;;;4809011;29;20047;-89
2022/09/29 14:14:56;;;;;;;;;;;;;;;;;;4809501;29;20274;-89
2022/09/29 14:17:30;;;;;;;;;;;;;;;;;;4809643;29;19925;-89
2022/09/29 14:19:59;;;;;;;;;;;;;;;;;;4789883;29;20407;-89
2022/09/29 14:22:31;;;;;;;;;;;;;;;;;;4805253;29;20594;-89
2022/09/29 14:24:59;;;;;;;;;;;;;;;;;;4790662;29;20757;-89
2022/09/29 14:27:26;;;;;;;;;;;;;;;;;;4801857;29;19948;-88
2022/09/29 14:29:55;;;;;;;;;;;;;;;;;;4793881;29;20012;-89
2022/09/29 14:32:27;;;;;;;;;;;;;;;;;;4798054;29;19931;-89
2022/09/29 14:34:53;;;;;;;;;;;;;;;;;;4792772;29;19928;-89
2022/09/29 14:37:30;;;;;;;;;;;;;;;;;;4803987;29;19932;-90
2022/09/29 14:42:41;;;;;;;;;;;;;;;;;;4786088;29;19940;-89
2022/09/29 14:53:40;;;;;;;;;;;;;;;;;;4785541;29;20292;-89
2022/09/29 14:56:16;;;;;;;;;;;;;;;;;;4780383;29;19936;-89
2022/09/29 14:58:42;;;;;;;;;;;;;;;;;;4792467;29;20028;-89
2022/09/29 15:01:08;;;;;;;;;;;;;;;;;;4807402;29;19957;-88
2022/09/29 15:03:34;;;;;;;;;;;;;;;;;;4814433;29;19929;-89
2022/09/29 15:06:00;;;;;;;;;;;;;;;;;;4796258;29;19989;-89
2022/09/29 15:08:26;;;;;;;;;;;;;;;;;;4791917;29;20354;-89
2022/09/29 15:10:52;;;;;;;;;;;;;;;;;;4800994;29;19952;-89
2022/09/29 15:13:18;;;;;;;;;;;;;;;;;;4806602;29;19936;-89
2022/09/29 15:15:45;;;;;;;;;;;;;;;;;;4802194;29;19933;-89
2022/09/29 15:18:10;;;;;;;;;;;;;;;;;;4813348;29;19933;-89
2022/09/29 15:20:36;;;;;;;;;;;;;;;;;;4803140;29;19921;-89
2022/09/29 15:23:03;;;;;;;;;;;;;;;;;;4810949;29;20598;-89
2022/09/29 15:25:52;;;;;;;;;;;;;;;;;;4784128;29;20392;-90
2022/09/29 15:28:20;;;;;;;;;;;;;;;;;;4779394;29;19932;-91
2022/09/29 15:30:46;;;;;;;;;;;;;;;;;;4788332;29;20232;-91
2022/09/29 15:33:12;;;;;;;;;;;;;;;;;;4789691;29;19929;-92
2022/09/29 15:35:39;;;;;;;;;;;;;;;;;;4797466;29;19936;-91
2022/09/29 15:38:10;;;;;;;;;;;;;;;;;;4793735;29;19929;-91
2022/09/29 15:40:49;;;;;;;;;;;;;;;;;;4780782;29;19973;-91
2022/09/29 15:43:17;;;;;;;;;;;;;;;;;;4798529;29;19928;-91
2022/09/29 15:45:48;;;;;;;;;;;;;;;;;;4787194;29;19936;-91
2022/09/29 15:48:20;;;;;;;;;;;;;;;;;;4791951;29;20027;-91
2022/09/29 15:50:57;;;;;;;;;;;;;;;;;;4782941;29;20489;-93
2022/09/29 15:53:37;;;;;;;;;;;;;;;;;;4786263;29;19933;-90
2022/09/29 15:56:19;;;;;;;;;;;;;;;;;;4776212;29;20658;-90
2022/09/29 15:58:48;;;;;;;;;;;;;;;;;;4753564;29;20031;-89
2022/09/29 16:01:17;;;;;;;;;;;;;;;;;;4767554;29;19976;-90
2022/09/29 16:03:54;;;;;;;;;;;;;;;;;;4760369;29;20392;-92
2022/09/29 16:06:30;;;;;;;;;;;;;;;;;;4767171;29;20396;-91
2022/09/29 16:09:11;;;;;;;;;;;;;;;;;;4762417;29;19972;-90
2022/09/29 16:11:46;;;;;;;;;;;;;;;;;;4769266;29;19925;-90
2022/09/29 16:14:17;;;;;;;;;;;;;;;;;;4799411;29;19929;-90
2022/09/29 16:17:04;;;;;;;;;;;;;;;;;;4765507;29;19972;-89
2022/09/29 16:19:32;;;;;;;;;;;;;;;;;;4769928;29;20879;-90
2022/09/29 16:22:19;;;;;;;;;;;;;;;;;;4764436;29;21138;-90
2022/09/29 16:24:51;;;;;;;;;;;;;;;;;;4782990;29;19933;-90
2022/09/29 16:27:26;;;;;;;;;;;;;;;;;;4791186;29;20681;-90
2022/09/29 16:30:05;;;;;;;;;;;;;;;;;;4811401;29;19933;-90
2022/09/29 16:32:52;;;;;;;;;;;;;;;;;;4813775;29;20740;-90
2022/09/29 16:35:18;;;;;;;;;;;;;;;;;;4803728;29;19928;-90
2022/09/29 16:37:50;;;;;;;;;;;;;;;;;;4793835;29;19926;-89
2022/09/29 16:40:25;;;;;;;;;;;;;;;;;;4753332;29;20629;-90
2022/09/29 16:43:03;;;;;;;;;;;;;;;;;;4761799;29;19936;-89
2022/09/29 16:45:31;;;;;;;;;;;;;;;;;;4763377;29;19938;-90
2022/09/29 16:48:09;;;;;;;;;;;;;;;;;;4777400;29;22827;-89
2022/09/29 16:50:35;;;;;;;;;;;;;;;;;;4790818;29;19933;-90
2022/09/29 16:53:08;;;;;;;;;;;;;;;;;;4762003;29;19956;-90
2022/09/29 16:55:37;;;;;;;;;;;;;;;;;;4761284;29;19933;-92
2022/09/29 16:58:10;;;;;;;;;;;;;;;;;;4758998;29;20384;-90
2022/09/29 17:00:39;;;;;;;;;;;;;;;;;;4769183;29;19925;-90
2022/09/29 17:03:07;;;;;;;;;;;;;;;;;;4755343;29;20468;-90
2022/09/29 17:05:36;;;;;;;;;;;;;;;;;;4791759;29;19941;-89